Terminal Aerodrome Forecast
Issued by NWS

Home | Current Version | Previous Version | Text Only | Print | Product List | Glossary On
Versions: 1 2 3 4 5 6 7 8 9 10 11 12 13 14 15
021
FTUS45 KABQ 282044 AAA
TAFTCC
TAF AMD
KTCC 282044Z 2821/2918 04015G25KT P6SM SCT090
     FM282300 10015G25KT P6SM SCT090 BKN140
     FM290700 12011KT P6SM BKN120
     FM291330 26015G25KT P6SM BKN120=

USA.gov is the U.S. government's official web portal to all federal, state and local government web resources and services.